Time;durP1;ratioP1;P1;durP2;ratioP2;P2;SDS_P1;SDS_P2;PMS_P1;PMS_P2;Temp;Humidity;BMP_temperature;BMP_pressure;BME280_temperature;BME280_humidity;BME280_pressure;Samples;Min_cycle;Max_cycle;Signal;HPM_P1;HPM_P2
2023/07/21 00:03:00;;;;;;;4.10;2.38;;;16.50;93.10;;;;;;6260749;28;20421;-79
2023/07/21 00:06:04;;;;;;;2.80;1.88;;;16.40;93.40;;;;;;6259127;28;20045;-81
2023/07/21 00:09:07;;;;;;;3.00;2.05;;;16.30;93.70;;;;;;6252466;28;20072;-78
2023/07/21 00:12:10;;;;;;;2.75;2.55;;;16.20;94.00;;;;;;6260706;28;20056;-80
2023/07/21 00:15:12;;;;;;;10.57;2.97;;;16.20;94.30;;;;;;6260419;28;20558;-78
2023/07/21 00:18:14;;;;;;;3.33;1.90;;;16.20;94.50;;;;;;6258849;28;20516;-80
2023/07/21 00:21:15;;;;;;;4.82;2.28;;;16.00;94.80;;;;;;6258593;28;20060;-80
2023/07/21 00:24:20;;;;;;;2.88;2.20;;;16.00;95.10;;;;;;6259227;28;20041;-79
2023/07/21 00:27:22;;;;;;;3.33;1.88;;;16.00;95.40;;;;;;6260644;28;20051;-81
2023/07/21 00:30:24;;;;;;;3.08;2.35;;;15.90;95.70;;;;;;6259670;28;20667;-78
2023/07/21 00:33:26;;;;;;;3.03;2.22;;;15.90;96.00;;;;;;6259835;28;20526;-79
2023/07/21 00:36:28;;;;;;;2.72;2.15;;;15.90;96.30;;;;;;6257648;28;20046;-79
2023/07/21 00:39:31;;;;;;;2.08;1.88;;;15.80;96.50;;;;;;6257717;28;20056;-78
2023/07/21 00:42:33;;;;;;;2.70;2.20;;;15.70;96.70;;;;;;6259405;28;20051;-79
2023/07/21 00:45:37;;;;;;;2.33;2.08;;;15.70;96.90;;;;;;6260259;28;20053;-80
2023/07/21 00:48:39;;;;;;;3.90;2.58;;;15.60;97.20;;;;;;6259569;28;20100;-78
2023/07/21 00:51:41;;;;;;;6.47;2.33;;;15.60;97.50;;;;;;6260662;28;20057;-80
2023/07/21 00:54:44;;;;;;;3.30;2.03;;;15.60;97.80;;;;;;6262714;28;20518;-79
2023/07/21 00:57:46;;;;;;;2.40;2.20;;;15.50;98.10;;;;;;6260613;28;20045;-81
2023/07/21 01:00:48;;;;;;;2.65;2.13;;;15.50;98.40;;;;;;6260148;28;20095;-78
2023/07/21 01:03:50;;;;;;;2.42;2.22;;;15.40;98.60;;;;;;6259723;28;20151;-79
2023/07/21 01:06:53;;;;;;;4.72;2.60;;;15.40;98.80;;;;;;6260918;28;20049;-80
2023/07/21 01:09:58;;;;;;;3.50;2.58;;;15.30;99.10;;;;;;6260352;28;20049;-79
2023/07/21 01:13:00;;;;;;;2.85;2.42;;;15.30;99.30;;;;;;6258542;28;20050;-82
2023/07/21 01:16:03;;;;;;;3.85;2.67;;;15.10;99.50;;;;;;6259599;28;20397;-79
2023/07/21 01:19:12;;;;;;;2.63;2.10;;;15.10;99.90;;;;;;6259339;28;20061;-81
2023/07/21 01:22:22;;;;;;;6.47;2.92;;;15.00;99.90;;;;;;6258214;28;20100;-80
2023/07/21 01:25:27;;;;;;;3.55;2.80;;;14.90;99.90;;;;;;6257737;28;20086;-80
2023/07/21 01:28:29;;;;;;;3.70;2.30;;;14.80;99.90;;;;;;6258049;28;20152;-81
2023/07/21 01:31:32;;;;;;;5.75;2.38;;;14.80;99.90;;;;;;6257562;28;20526;-82
2023/07/21 01:34:35;;;;;;;5.57;2.80;;;14.70;99.90;;;;;;6257012;28;20088;-81
2023/07/21 01:37:39;;;;;;;3.03;2.63;;;14.60;99.90;;;;;;6257109;28;20064;-82
2023/07/21 01:40:43;;;;;;;5.72;2.45;;;14.60;99.90;;;;;;6258277;28;20056;-81
2023/07/21 01:43:46;;;;;;;2.60;2.40;;;14.60;99.90;;;;;;6259781;28;20049;-81
2023/07/21 01:46:48;;;;;;;2.63;2.42;;;14.60;99.90;;;;;;6258097;28;20072;-81
2023/07/21 01:49:49;;;;;;;3.13;2.92;;;14.70;99.90;;;;;;6257818;28;20108;-81
2023/07/21 01:52:52;;;;;;;5.13;2.90;;;14.70;99.90;;;;;;6259033;28;20408;-80
2023/07/21 01:56:01;;;;;;;2.78;2.40;;;14.70;99.90;;;;;;6258244;28;20428;-81
2023/07/21 01:59:06;;;;;;;5.43;2.60;;;14.80;99.90;;;;;;6258873;28;20045;-81
2023/07/21 02:02:09;;;;;;;2.95;2.50;;;14.90;99.90;;;;;;6258866;28;20369;-81
2023/07/21 02:05:19;;;;;;;2.80;2.45;;;14.90;99.90;;;;;;6259129;28;20049;-82
2023/07/21 02:08:21;;;;;;;3.35;2.47;;;15.00;99.90;;;;;;6258887;28;20052;-82
2023/07/21 02:11:24;;;;;;;6.60;3.28;;;15.00;99.90;;;;;;6259529;28;20064;-82
2023/07/21 02:14:26;;;;;;;11.82;3.30;;;15.00;99.90;;;;;;6259910;28;20046;-81
2023/07/21 02:17:28;;;;;;;3.95;2.30;;;14.90;99.90;;;;;;6259255;28;20064;-81
2023/07/21 02:20:30;;;;;;;3.97;2.28;;;14.90;99.90;;;;;;6258558;28;20048;-81
2023/07/21 02:23:32;;;;;;;4.75;2.20;;;15.00;99.90;;;;;;6259316;28;20080;-81
2023/07/21 02:26:35;;;;;;;3.47;3.17;;;15.00;99.90;;;;;;6258941;28;20046;-80
2023/07/21 02:29:36;;;;;;;3.25;2.50;;;15.00;99.90;;;;;;6259494;28;20057;-83
2023/07/21 02:32:38;;;;;;;4.05;3.15;;;14.90;99.90;;;;;;6259520;28;20052;-81
2023/07/21 02:35:40;;;;;;;2.72;2.35;;;14.90;99.90;;;;;;6260268;28;20064;-82
2023/07/21 02:38:41;;;;;;;9.68;2.65;;;14.90;99.90;;;;;;6259523;28;20065;-81
2023/07/21 02:41:45;;;;;;;4.55;2.88;;;14.90;99.90;;;;;;6263518;28;20059;-82
2023/07/21 02:44:46;;;;;;;2.55;2.35;;;14.90;99.90;;;;;;6259774;28;20091;-82
2023/07/21 02:47:48;;;;;;;4.35;2.85;;;14.90;99.90;;;;;;6260053;28;20058;-80
2023/07/21 02:50:51;;;;;;;11.80;2.92;;;14.90;99.90;;;;;;6260572;28;20392;-79
2023/07/21 02:53:53;;;;;;;4.28;2.53;;;14.80;99.90;;;;;;6260899;28;20060;-82
2023/07/21 02:56:56;;;;;;;4.00;2.65;;;14.80;99.90;;;;;;6261461;28;20064;-80
2023/07/21 02:59:58;;;;;;;2.58;2.10;;;14.80;99.90;;;;;;6265371;28;20179;-82
2023/07/21 03:03:00;;;;;;;3.13;2.78;;;14.70;99.90;;;;;;6266334;28;20052;-82
2023/07/21 03:06:02;;;;;;;4.38;2.60;;;14.70;99.90;;;;;;6265557;28;20049;-82
2023/07/21 03:09:05;;;;;;;2.85;2.50;;;14.90;99.90;;;;;;6265983;28;20132;-82
2023/07/21 03:12:09;;;;;;;2.95;2.00;;;15.00;99.90;;;;;;6262622;28;20405;-81
2023/07/21 03:15:11;;;;;;;3.92;2.40;;;15.00;99.90;;;;;;6267134;28;20140;-82
2023/07/21 03:18:13;;;;;;;4.30;2.75;;;15.10;99.90;;;;;;6266779;28;20047;-82
2023/07/21 03:21:14;;;;;;;6.90;3.88;;;15.00;99.90;;;;;;6266823;28;20067;-83
2023/07/21 03:24:16;;;;;;;2.90;2.33;;;14.90;99.90;;;;;;6267480;28;20143;-82
2023/07/21 03:27:19;;;;;;;2.75;2.50;;;14.90;99.90;;;;;;6270203;28;20064;-78
2023/07/21 03:30:21;;;;;;;3.53;2.28;;;14.90;99.90;;;;;;6263305;28;20060;-80
2023/07/21 03:33:22;;;;;;;3.97;2.33;;;14.90;99.90;;;;;;6259277;28;20037;-80
2023/07/21 03:36:24;;;;;;;7.13;2.28;;;14.90;99.90;;;;;;6260483;28;20500;-80
2023/07/21 03:39:25;;;;;;;5.88;2.53;;;14.90;99.90;;;;;;6260035;28;20060;-80
2023/07/21 03:42:29;;;;;;;6.50;2.30;;;15.00;99.90;;;;;;6260441;28;20056;-80
2023/07/21 03:45:31;;;;;;;3.00;2.63;;;15.00;99.90;;;;;;6260107;28;20088;-81
2023/07/21 03:48:33;;;;;;;3.08;2.63;;;15.00;99.90;;;;;;6258010;28;20045;-80
2023/07/21 03:51:35;;;;;;;2.80;2.22;;;15.00;99.90;;;;;;6259117;28;20052;-82
2023/07/21 03:54:37;;;;;;;2.40;2.15;;;15.10;99.90;;;;;;6234257;28;20042;-80
2023/07/21 03:57:41;;;;;;;2.80;2.03;;;15.10;99.90;;;;;;6233462;28;20049;-79
2023/07/21 04:00:43;;;;;;;3.78;2.35;;;15.20;99.90;;;;;;6234743;28;20120;-80
2023/07/21 04:03:47;;;;;;;2.55;2.05;;;15.20;99.90;;;;;;6231496;28;20096;-79
2023/07/21 04:06:49;;;;;;;3.53;2.42;;;15.30;99.90;;;;;;6229946;28;20132;-79
2023/07/21 04:09:51;;;;;;;3.05;2.20;;;15.40;99.90;;;;;;6228486;28;20053;-80
2023/07/21 04:12:54;;;;;;;2.63;2.25;;;15.50;99.90;;;;;;6228629;28;20052;-81
2023/07/21 04:15:55;;;;;;;2.28;2.08;;;15.60;99.90;;;;;;6228620;28;20054;-79
2023/07/21 04:18:57;;;;;;;6.55;2.50;;;15.70;99.90;;;;;;6227223;28;20193;-79
2023/07/21 04:22:00;;;;;;;2.95;2.20;;;15.70;99.90;;;;;;6227622;28;20053;-80
2023/07/21 04:25:02;;;;;;;3.13;2.58;;;15.80;99.90;;;;;;6227745;28;20058;-79
2023/07/21 04:28:05;;;;;;;7.32;2.67;;;15.90;99.90;;;;;;6227841;28;20088;-80
2023/07/21 04:31:08;;;;;;;4.93;2.03;;;16.00;99.90;;;;;;6228541;28;20060;-80
2023/07/21 04:34:10;;;;;;;3.55;2.67;;;16.10;99.90;;;;;;6227869;28;20061;-81
2023/07/21 04:37:13;;;;;;;3.20;2.20;;;16.10;99.90;;;;;;6227154;28;20056;-81
2023/07/21 04:40:15;;;;;;;2.53;2.10;;;16.20;99.90;;;;;;6226012;28;20052;-80
2023/07/21 04:43:18;;;;;;;6.70;2.63;;;16.30;99.90;;;;;;6227104;28;20050;-78
2023/07/21 04:46:19;;;;;;;5.18;2.10;;;16.30;99.90;;;;;;6227251;28;20065;-81
2023/07/21 04:49:21;;;;;;;3.38;2.63;;;16.40;99.90;;;;;;6227311;28;20473;-80
2023/07/21 04:52:23;;;;;;;4.55;2.13;;;16.40;99.90;;;;;;6228234;28;20401;-79
2023/07/21 04:55:26;;;;;;;2.58;2.28;;;16.50;99.90;;;;;;6227663;28;20060;-80
2023/07/21 04:58:29;;;;;;;3.40;2.30;;;16.50;99.90;;;;;;6228082;28;20050;-82
2023/07/21 05:01:32;;;;;;;3.45;2.97;;;16.60;99.90;;;;;;6227702;28;20053;-80
2023/07/21 05:04:33;;;;;;;5.28;3.10;;;16.80;99.90;;;;;;6227620;28;20487;-80
2023/07/21 05:07:35;;;;;;;3.72;2.78;;;16.90;99.90;;;;;;6230796;28;20056;-80
2023/07/21 05:10:37;;;;;;;7.28;2.75;;;17.10;99.90;;;;;;6232340;28;20049;-82
2023/07/21 05:13:40;;;;;;;6.88;2.80;;;17.20;99.90;;;;;;6230281;28;20113;-81
2023/07/21 05:16:41;;;;;;;9.55;3.15;;;17.40;99.90;;;;;;6226719;28;20050;-79
2023/07/21 05:19:43;;;;;;;3.42;2.72;;;17.60;99.90;;;;;;6229649;28;20490;-82
2023/07/21 05:22:46;;;;;;;2.22;1.67;;;17.70;99.80;;;;;;6231595;28;20046;-81
2023/07/21 05:25:47;;;;;;;14.35;2.30;;;17.80;99.00;;;;;;6230681;28;20049;-81
2023/07/21 05:28:53;;;;;;;2.92;2.45;;;17.90;98.70;;;;;;6229781;28;20065;-81
2023/07/21 05:31:55;;;;;;;3.53;2.20;;;18.00;98.30;;;;;;6230743;28;20046;-79
2023/07/21 05:34:57;;;;;;;6.72;2.63;;;18.20;97.70;;;;;;6231311;28;20068;-80
2023/07/21 05:37:58;;;;;;;3.10;2.30;;;18.20;97.30;;;;;;6228297;28;20081;-82
2023/07/21 05:41:00;;;;;;;2.85;2.00;;;18.30;96.90;;;;;;6228669;28;20053;-81
2023/07/21 05:44:03;;;;;;;3.90;2.30;;;18.40;96.40;;;;;;6228306;28;20049;-79
2023/07/21 05:47:05;;;;;;;2.85;2.30;;;18.50;96.00;;;;;;6227889;28;20049;-81
2023/07/21 05:50:08;;;;;;;3.30;2.08;;;18.60;95.60;;;;;;6228088;28;20060;-81
2023/07/21 05:53:10;;;;;;;2.90;2.03;;;18.70;95.20;;;;;;6229957;28;20054;-79
2023/07/21 05:56:12;;;;;;;7.40;1.92;;;18.80;94.80;;;;;;6228890;28;20049;-81
2023/07/21 05:59:15;;;;;;;3.22;2.15;;;19.00;94.40;;;;;;6228878;28;20095;-79
2023/07/21 06:02:17;;;;;;;3.38;2.58;;;19.10;93.90;;;;;;6226511;28;20049;-82
2023/07/21 06:05:19;;;;;;;4.68;3.47;;;19.10;93.50;;;;;;6226315;28;20050;-82
2023/07/21 06:08:21;;;;;;;3.08;1.77;;;19.20;93.20;;;;;;6226310;28;20125;-82
2023/07/21 06:11:23;;;;;;;3.33;1.67;;;19.30;92.90;;;;;;6227465;28;20126;-80
2023/07/21 06:14:26;;;;;;;3.13;2.00;;;19.30;92.70;;;;;;6230343;28;20048;-80
2023/07/21 06:17:28;;;;;;;6.90;2.13;;;19.50;92.40;;;;;;6229455;28;20056;-81
2023/07/21 06:20:30;;;;;;;5.03;1.98;;;19.50;92.00;;;;;;6230694;28;20133;-81
2023/07/21 06:23:32;;;;;;;3.58;2.42;;;19.60;91.90;;;;;;6231302;28;20057;-82
2023/07/21 06:26:33;;;;;;;2.95;2.17;;;19.60;91.70;;;;;;6231998;28;20087;-80
2023/07/21 06:29:36;;;;;;;6.45;5.85;;;19.50;91.60;;;;;;6230996;28;20050;-81
2023/07/21 06:32:40;;;;;;;5.88;5.00;;;19.50;91.50;;;;;;6226786;28;20065;-79
2023/07/21 06:35:42;;;;;;;9.35;2.72;;;19.70;91.50;;;;;;6231401;28;20091;-80
2023/07/21 06:38:44;;;;;;;3.78;1.73;;;19.80;91.00;;;;;;6232223;28;20180;-79
2023/07/21 06:41:46;;;;;;;2.70;1.65;;;19.90;90.70;;;;;;6233508;28;20050;-81
2023/07/21 06:44:49;;;;;;;6.90;1.90;;;19.90;90.60;;;;;;6231680;28;20042;-80
2023/07/21 06:47:50;;;;;;;3.33;2.08;;;19.90;90.40;;;;;;6233015;28;20050;-80
2023/07/21 06:50:52;;;;;;;6.22;2.17;;;19.90;90.40;;;;;;6232799;28;20050;-80
2023/07/21 06:53:54;;;;;;;4.57;1.70;;;20.00;90.40;;;;;;6231709;28;20041;-81
2023/07/21 06:56:55;;;;;;;4.18;1.70;;;20.10;90.30;;;;;;6232046;28;20050;-81
2023/07/21 06:59:58;;;;;;;2.85;2.10;;;20.30;90.00;;;;;;6231883;28;20050;-80
2023/07/21 07:03:01;;;;;;;4.80;2.53;;;20.40;89.40;;;;;;6232973;28;20061;-81
2023/07/21 07:06:02;;;;;;;5.35;1.75;;;20.50;88.80;;;;;;6233356;28;20053;-81
2023/07/21 07:09:04;;;;;;;6.47;3.15;;;20.70;88.40;;;;;;6231744;28;20046;-80
2023/07/21 07:12:08;;;;;;;3.15;2.25;;;21.30;87.60;;;;;;6228968;28;20046;-81
2023/07/21 07:15:12;;;;;;;2.20;1.83;;;22.20;85.50;;;;;;6238835;28;20596;-80
2023/07/21 07:18:13;;;;;;;5.07;1.98;;;22.70;82.20;;;;;;6219617;28;20041;-79
2023/07/21 07:21:15;;;;;;;3.10;2.03;;;23.00;80.80;;;;;;6225714;28;20516;-80
2023/07/21 07:24:19;;;;;;;10.30;2.08;;;23.40;78.60;;;;;;6223557;28;20071;-78
2023/07/21 07:27:21;;;;;;;4.97;1.73;;;23.70;77.00;;;;;;6226820;28;20060;-82
2023/07/21 07:30:24;;;;;;;9.68;2.53;;;24.60;75.20;;;;;;6224519;28;20049;-79
2023/07/21 07:33:25;;;;;;;10.80;2.13;;;25.30;71.90;;;;;;6226255;28;20057;-79
2023/07/21 07:36:27;;;;;;;8.15;2.72;;;25.10;70.00;;;;;;6225297;28;20049;-78
2023/07/21 07:39:30;;;;;;;5.15;1.80;;;24.60;69.50;;;;;;6228658;28;20053;-80
2023/07/21 07:42:33;;;;;;;3.72;1.95;;;24.40;69.60;;;;;;6248332;28;20049;-79
2023/07/21 07:45:38;;;;;;;4.22;1.85;;;24.20;69.50;;;;;;6248538;28;20050;-78
2023/07/21 07:48:40;;;;;;;4.40;2.70;;;24.00;69.20;;;;;;6256833;28;20504;-80
2023/07/21 07:51:42;;;;;;;4.07;2.15;;;23.90;69.60;;;;;;6256635;28;20515;-78
2023/07/21 07:54:44;;;;;;;4.85;2.33;;;24.00;70.00;;;;;;6259573;28;20042;-78
2023/07/21 07:57:46;;;;;;;5.07;1.60;;;24.40;69.60;;;;;;6258027;28;20057;-79
2023/07/21 08:00:49;;;;;;;3.60;2.10;;;25.00;69.00;;;;;;6261721;28;20049;-79
2023/07/21 08:03:52;;;;;;;9.43;2.30;;;25.60;67.60;;;;;;6260082;28;20052;-79
2023/07/21 08:06:53;;;;;;;9.43;2.00;;;26.60;66.60;;;;;;6263521;28;20056;-79
2023/07/21 08:09:55;;;;;;;5.28;1.90;;;27.60;64.00;;;;;;6263788;28;20042;-79
2023/07/21 08:12:58;;;;;;;4.70;1.75;;;28.00;61.60;;;;;;6262626;28;20427;-79
2023/07/21 08:16:03;;;;;;;5.38;2.05;;;28.00;60.80;;;;;;6262988;28;20049;-80
2023/07/21 08:19:05;;;;;;;10.38;2.13;;;28.20;59.40;;;;;;6263003;28;20059;-79
2023/07/21 08:22:07;;;;;;;5.28;2.05;;;28.40;58.00;;;;;;6262901;28;20053;-79
2023/07/21 08:25:09;;;;;;;3.25;1.92;;;28.40;57.00;;;;;;6262240;28;20049;-79
2023/07/21 08:28:11;;;;;;;3.55;1.42;;;28.40;56.30;;;;;;6262482;28;20423;-79
2023/07/21 08:31:14;;;;;;;1.90;0.90;;;28.60;55.40;;;;;;6263141;28;20053;-79
2023/07/21 08:34:15;;;;;;;1.58;1.30;;;29.00;54.70;;;;;;6262109;28;20508;-79
2023/07/21 08:37:17;;;;;;;1.63;1.45;;;29.30;53.00;;;;;;6261926;28;20397;-79
2023/07/21 08:40:19;;;;;;;2.50;1.92;;;29.10;51.80;;;;;;6262650;28;20067;-79
2023/07/21 08:43:21;;;;;;;2.25;1.95;;;28.90;51.30;;;;;;6263016;28;20056;-79
2023/07/21 08:46:24;;;;;;;3.05;1.63;;;28.50;51.10;;;;;;6262645;28;20045;-80
2023/07/21 08:49:27;;;;;;;4.18;1.40;;;28.30;51.20;;;;;;6260169;28;20076;-79
2023/07/21 08:52:29;;;;;;;3.05;1.63;;;28.00;50.70;;;;;;6259948;28;20052;-79
2023/07/21 08:55:30;;;;;;;2.30;1.25;;;27.50;51.20;;;;;;6258473;28;20046;-79
2023/07/21 08:58:32;;;;;;;3.00;1.90;;;27.30;51.70;;;;;;6258753;28;20046;-79
2023/07/21 09:01:35;;;;;;;2.22;1.70;;;27.30;52.00;;;;;;6259656;28;20069;-79
2023/07/21 09:04:38;;;;;;;3.88;1.83;;;27.50;51.80;;;;;;6258792;28;20041;-79
2023/07/21 09:07:41;;;;;;;4.63;2.30;;;27.90;52.00;;;;;;6258653;28;20053;-79
2023/07/21 09:10:43;;;;;;;2.90;2.00;;;28.50;51.60;;;;;;6259767;28;20109;-79
2023/07/21 09:13:52;;;;;;;3.97;1.90;;;29.40;50.60;;;;;;6258796;28;20059;-79
2023/07/21 09:16:58;;;;;;;3.33;1.75;;;29.60;49.40;;;;;;6257600;28;20045;-78
2023/07/21 09:20:00;;;;;;;3.30;1.40;;;29.60;49.30;;;;;;6258842;28;20041;-79
2023/07/21 09:23:02;;;;;;;1.67;1.15;;;29.70;48.90;;;;;;6258923;28;20049;-79
2023/07/21 09:26:03;;;;;;;2.65;1.83;;;29.80;48.30;;;;;;6255377;28;20037;-79
2023/07/21 09:29:17;;;;;;;1.80;1.38;;;30.20;48.40;;;;;;6257563;28;20049;-79
2023/07/21 09:32:21;;;;;;;3.55;1.65;;;31.20;47.80;;;;;;6257512;28;20057;-79
2023/07/21 09:35:23;;;;;;;2.15;1.73;;;31.90;46.20;;;;;;6257645;28;20417;-79
2023/07/21 09:38:25;;;;;;;2.42;1.55;;;31.60;45.50;;;;;;6257810;28;20128;-79
2023/07/21 09:41:27;;;;;;;2.22;1.70;;;31.10;45.40;;;;;;6257029;28;20053;-79
2023/07/21 09:44:29;;;;;;;4.15;1.60;;;30.80;46.10;;;;;;6256901;28;20033;-80
2023/07/21 09:47:32;;;;;;;3.00;1.45;;;31.10;46.60;;;;;;6257086;28;20056;-79
2023/07/21 09:50:36;;;;;;;1.67;1.40;;;31.80;46.30;;;;;;6249348;28;20041;-79
2023/07/21 09:53:40;;;;;;;2.08;1.17;;;31.90;45.60;;;;;;6269205;28;20073;-79
2023/07/21 09:56:44;;;;;;;5.50;2.08;;;32.00;45.10;;;;;;6260522;28;20065;-79
2023/07/21 09:59:49;;;;;;;1.65;1.20;;;31.50;44.70;;;;;;6259940;28;20045;-80
2023/07/21 10:02:52;;;;;;;2.13;1.52;;;31.20;45.60;;;;;;6255920;28;20057;-80
2023/07/21 10:05:54;;;;;;;2.17;1.40;;;31.40;45.70;;;;;;6257093;28;20049;-79
2023/07/21 10:08:57;;;;;;;5.63;1.42;;;31.80;45.50;;;;;;6257163;28;20408;-79
2023/07/21 10:12:10;;;;;;;5.28;1.20;;;32.00;44.70;;;;;;6255448;28;20053;-78
2023/07/21 10:15:15;;;;;;;4.15;1.80;;;31.90;44.30;;;;;;6254900;28;20046;-77
2023/07/21 10:18:19;;;;;;;8.40;2.13;;;31.60;44.70;;;;;;6254937;28;20056;-77
2023/07/21 10:21:21;;;;;;;2.08;1.50;;;31.10;45.00;;;;;;6261951;28;20048;-77
2023/07/21 10:24:24;;;;;;;2.95;1.50;;;30.70;45.40;;;;;;6252508;28;20041;-77
2023/07/21 10:27:28;;;;;;;2.70;1.58;;;30.70;46.10;;;;;;6253534;28;20049;-78
2023/07/21 10:30:30;;;;;;;1.75;1.30;;;30.60;45.60;;;;;;6252660;28;20046;-78
2023/07/21 10:33:33;;;;;;;4.97;1.70;;;30.70;45.50;;;;;;6240086;28;20056;-77
2023/07/21 10:36:48;;;;;;;3.05;1.77;;;30.60;45.30;;;;;;6236475;28;20058;-77
2023/07/21 10:39:54;;;;;;;3.78;1.55;;;30.30;45.60;;;;;;6214198;28;20053;-79
2023/07/21 10:42:56;;;;;;;3.13;1.25;;;30.00;46.10;;;;;;6214723;28;20508;-80
2023/07/21 10:45:57;;;;;;;3.78;1.50;;;29.70;45.60;;;;;;6215581;28;20045;-77
2023/07/21 10:49:02;;;;;;;1.88;1.40;;;29.20;45.40;;;;;;6216331;28;20519;-77
2023/07/21 10:52:04;;;;;;;4.05;1.13;;;28.80;45.60;;;;;;6214839;28;20062;-77
2023/07/21 10:55:06;;;;;;;3.47;1.25;;;28.60;45.90;;;;;;6215485;28;20394;-77
2023/07/21 10:58:08;;;;;;;4.47;1.50;;;28.40;46.30;;;;;;6213926;28;20050;-77
2023/07/21 11:01:09;;;;;;;2.60;2.25;;;28.30;46.50;;;;;;6214880;28;20057;-77
2023/07/21 11:04:14;;;;;;;2.00;1.50;;;28.20;46.70;;;;;;6213278;28;20046;-77
2023/07/21 11:07:16;;;;;;;10.95;1.75;;;28.30;46.70;;;;;;6214467;28;20072;-77
2023/07/21 11:10:17;;;;;;;5.30;1.98;;;28.30;46.90;;;;;;6212651;28;20049;-77
2023/07/21 11:13:19;;;;;;;1.65;1.40;;;28.20;47.20;;;;;;6213773;28;20058;-80
2023/07/21 11:16:21;;;;;;;1.48;1.30;;;28.00;47.40;;;;;;6214294;28;20061;-77
2023/07/21 11:19:26;;;;;;;2.08;1.38;;;27.70;47.60;;;;;;6213037;28;20061;-79
2023/07/21 11:22:27;;;;;;;1.67;1.38;;;27.60;48.00;;;;;;6217966;28;20069;-78
2023/07/21 11:25:29;;;;;;;1.83;1.73;;;27.30;48.40;;;;;;6218944;28;20409;-77
2023/07/21 11:28:31;;;;;;;1.70;1.30;;;27.20;48.70;;;;;;6216649;28;20056;-78
2023/07/21 11:31:34;;;;;;;3.50;1.60;;;27.20;49.20;;;;;;6217823;28;20084;-77
2023/07/21 11:34:38;;;;;;;1.55;1.38;;;27.30;49.60;;;;;;6216248;28;20065;-79
2023/07/21 11:37:41;;;;;;;1.83;1.08;;;27.60;49.60;;;;;;6222164;28;20051;-78
2023/07/21 11:40:46;;;;;;;1.13;0.93;;;27.70;49.40;;;;;;6218571;28;20508;-78
2023/07/21 11:43:49;;;;;;;1.13;0.98;;;27.90;49.20;;;;;;6218585;28;20057;-78
2023/07/21 11:46:59;;;;;;;1.33;1.15;;;27.90;49.00;;;;;;6218184;28;20132;-78
2023/07/21 11:50:05;;;;;;;3.00;1.65;;;27.80;48.90;;;;;;6215820;28;20065;-77
2023/07/21 11:53:07;;;;;;;1.85;1.10;;;27.60;49.00;;;;;;6219146;28;20196;-78
2023/07/21 11:56:09;;;;;;;6.10;1.40;;;27.30;48.90;;;;;;6216457;28;20064;-78
2023/07/21 11:59:10;;;;;;;7.97;1.58;;;26.90;49.30;;;;;;6217721;28;20049;-77
2023/07/21 12:02:16;;;;;;;3.33;1.20;;;26.50;49.80;;;;;;6219973;28;20052;-79
2023/07/21 12:05:19;;;;;;;4.03;1.40;;;26.30;50.50;;;;;;6220133;28;20057;-78
2023/07/21 12:08:21;;;;;;;2.33;1.55;;;26.10;51.20;;;;;;6212985;28;20053;-80
2023/07/21 12:11:23;;;;;;;4.10;1.42;;;25.90;52.70;;;;;;6214960;28;20041;-78
2023/07/21 12:14:25;;;;;;;2.03;1.58;;;25.50;54.60;;;;;;6216617;28;20065;-78
2023/07/21 12:17:28;;;;;;;2.80;1.20;;;25.10;55.50;;;;;;6213827;28;20053;-81
2023/07/21 12:20:31;;;;;;;2.60;1.65;;;24.80;56.00;;;;;;6217788;28;20171;-78
2023/07/21 12:23:33;;;;;;;2.78;1.42;;;24.50;56.30;;;;;;6218867;28;20164;-80
2023/07/21 12:26:35;;;;;;;3.05;1.45;;;24.20;56.50;;;;;;6217943;28;20046;-81
2023/07/21 12:29:36;;;;;;;2.17;1.50;;;24.00;56.70;;;;;;6216959;28;20133;-79
2023/07/21 12:32:38;;;;;;;3.75;2.13;;;23.80;56.60;;;;;;6215958;28;20045;-79
2023/07/21 12:35:41;;;;;;;6.80;1.88;;;23.60;57.20;;;;;;6215800;28;20504;-80
2023/07/21 12:38:43;;;;;;;3.80;2.17;;;23.50;58.90;;;;;;6216472;28;21613;-81
2023/07/21 12:41:45;;;;;;;2.75;1.50;;;23.40;60.90;;;;;;6215638;28;20076;-81
2023/07/21 12:44:46;;;;;;;2.10;1.38;;;23.20;62.40;;;;;;6215366;28;20057;-81
2023/07/21 12:47:48;;;;;;;4.40;2.08;;;23.10;63.00;;;;;;6213846;28;20078;-80
2023/07/21 12:50:51;;;;;;;2.42;1.42;;;22.90;63.60;;;;;;6218373;28;20061;-81
2023/07/21 12:53:53;;;;;;;4.20;1.67;;;22.70;64.50;;;;;;6218386;28;20418;-80
2023/07/21 12:56:54;;;;;;;3.00;1.33;;;22.60;65.40;;;;;;6217250;28;20501;-79
2023/07/21 12:59:56;;;;;;;3.95;1.60;;;22.40;66.30;;;;;;6216690;28;20053;-80
2023/07/21 13:02:58;;;;;;;1.98;1.38;;;22.30;67.20;;;;;;6215620;28;20046;-80
2023/07/21 13:06:01;;;;;;;1.85;1.50;;;22.10;67.90;;;;;;6216989;28;20034;-80
2023/07/21 13:09:03;;;;;;;1.90;1.45;;;22.10;68.40;;;;;;6216699;28;20227;-80
2023/07/21 13:12:05;;;;;;;3.13;1.88;;;22.00;68.40;;;;;;6216287;28;20053;-80
2023/07/21 13:15:07;;;;;;;1.83;1.23;;;21.90;68.80;;;;;;6213378;28;20075;-81
2023/07/21 13:18:09;;;;;;;4.43;1.52;;;21.80;70.30;;;;;;6217477;28;20096;-80
2023/07/21 13:21:12;;;;;;;1.90;1.42;;;21.70;72.10;;;;;;6217350;28;20046;-81
2023/07/21 13:24:14;;;;;;;2.17;1.60;;;21.60;74.90;;;;;;6213989;28;20429;-82
2023/07/21 13:27:15;;;;;;;3.85;1.42;;;21.40;76.40;;;;;;6213442;28;20061;-80
2023/07/21 13:30:17;;;;;;;3.00;1.42;;;21.30;77.40;;;;;;6216356;28;20145;-80
2023/07/21 13:33:19;;;;;;;2.90;1.55;;;21.20;78.90;;;;;;6218365;28;20049;-82
2023/07/21 13:36:22;;;;;;;5.43;1.92;;;21.00;80.30;;;;;;6215727;28;20050;-80
2023/07/21 13:39:24;;;;;;;5.03;2.97;;;20.70;82.10;;;;;;6217939;28;20097;-81
2023/07/21 13:42:25;;;;;;;3.65;1.45;;;20.50;83.90;;;;;;6216739;28;20049;-83
2023/07/21 13:45:27;;;;;;;2.33;2.13;;;20.30;85.70;;;;;;6216052;28;20738;-80
2023/07/21 13:48:29;;;;;;;2.70;2.38;;;20.20;87.40;;;;;;6213586;28;20048;-81
2023/07/21 13:51:32;;;;;;;4.97;2.10;;;19.80;89.50;;;;;;6214893;28;20061;-81
2023/07/21 13:54:33;;;;;;;5.88;2.35;;;19.70;91.50;;;;;;6214030;28;20052;-83
2023/07/21 13:57:35;;;;;;;4.60;3.92;;;19.90;93.60;;;;;;6212937;28;20038;-82
2023/07/21 14:00:37;;;;;;;4.15;1.90;;;20.20;95.20;;;;;;6216140;28;20038;-80
2023/07/21 14:03:38;;;;;;;2.92;1.95;;;20.50;96.10;;;;;;6215727;28;20061;-83
2023/07/21 14:06:42;;;;;;;3.88;2.22;;;20.70;96.40;;;;;;6218584;28;20058;-80
2023/07/21 14:09:43;;;;;;;5.25;2.00;;;20.80;97.00;;;;;;6218640;28;20421;-81
2023/07/21 14:12:48;;;;;;;5.80;2.15;;;21.10;96.90;;;;;;6217524;28;20055;-79
2023/07/21 14:15:49;;;;;;;2.75;1.98;;;21.30;96.70;;;;;;6216170;28;20100;-80
2023/07/21 14:18:52;;;;;;;3.60;2.20;;;21.50;96.50;;;;;;6213254;28;20054;-80
2023/07/21 14:21:55;;;;;;;2.78;1.73;;;21.80;96.70;;;;;;6213959;28;20433;-79
2023/07/21 14:24:56;;;;;;;5.30;2.22;;;22.20;96.40;;;;;;6213430;28;20505;-79
2023/07/21 14:27:58;;;;;;;2.90;1.98;;;22.20;95.10;;;;;;6215149;28;20049;-80
2023/07/21 14:31:00;;;;;;;4.07;2.45;;;22.10;94.80;;;;;;6213789;28;20057;-80
2023/07/21 14:34:02;;;;;;;6.15;2.40;;;22.10;94.60;;;;;;6211704;28;20042;-80
2023/07/21 14:37:06;;;;;;;2.83;1.80;;;22.50;94.70;;;;;;6212017;28;20053;-81
2023/07/21 14:40:11;;;;;;;2.25;2.03;;;22.70;93.70;;;;;;6214758;28;20050;-80
2023/07/21 14:43:12;;;;;;;3.75;2.50;;;22.60;93.30;;;;;;6217137;28;20081;-78
2023/07/21 14:46:14;;;;;;;2.97;2.08;;;22.60;92.90;;;;;;6213000;28;20060;-81
2023/07/21 14:49:16;;;;;;;3.03;2.28;;;22.30;92.60;;;;;;6207535;28;20054;-78
2023/07/21 14:52:19;;;;;;;2.35;2.00;;;22.10;92.90;;;;;;6212874;28;20050;-82
2023/07/21 14:55:21;;;;;;;3.35;2.13;;;22.00;93.10;;;;;;6215517;28;20046;-80
2023/07/21 14:58:24;;;;;;;6.30;1.80;;;22.00;93.20;;;;;;6217042;28;20478;-80
2023/07/21 15:01:31;;;;;;;3.97;2.03;;;22.20;92.90;;;;;;6218062;28;20042;-80
2023/07/21 15:04:33;;;;;;;2.78;1.98;;;22.40;92.40;;;;;;6217280;28;20053;-80
2023/07/21 15:07:36;;;;;;;3.05;1.95;;;22.90;92.00;;;;;;6215854;28;20124;-79
2023/07/21 15:10:38;;;;;;;1.90;1.55;;;23.30;90.80;;;;;;6218375;28;20073;-79
2023/07/21 15:13:40;;;;;;;3.63;1.60;;;23.40;89.60;;;;;;6218654;28;20046;-80
2023/07/21 15:16:42;;;;;;;1.90;1.75;;;23.40;89.30;;;;;;6218097;28;20046;-80
2023/07/21 15:19:43;;;;;;;2.83;2.45;;;23.30;88.70;;;;;;6217514;28;20179;-79
2023/07/21 15:22:47;;;;;;;1.80;1.65;;;23.10;88.00;;;;;;6216694;28;20504;-78
2023/07/21 15:25:50;;;;;;;3.22;2.38;;;22.90;88.60;;;;;;6214628;28;20054;-77
2023/07/21 15:28:52;;;;;;;2.50;1.90;;;22.90;87.30;;;;;;6215772;28;20504;-80
2023/07/21 15:31:53;;;;;;;2.85;1.73;;;22.80;87.70;;;;;;6216447;28;20057;-81
2023/07/21 15:34:55;;;;;;;3.38;1.95;;;22.60;87.40;;;;;;6218125;28;20501;-80
2023/07/21 15:37:58;;;;;;;4.88;2.10;;;22.50;88.40;;;;;;6215770;28;20052;-79
2023/07/21 15:41:00;;;;;;;3.63;1.75;;;22.60;88.30;;;;;;6217665;28;20199;-78
2023/07/21 15:44:02;;;;;;;5.35;2.25;;;22.60;88.00;;;;;;6217683;28;20061;-81
2023/07/21 15:47:04;;;;;;;3.13;2.38;;;22.50;88.10;;;;;;6215937;28;20042;-80
2023/07/21 15:50:11;;;;;;;2.58;1.88;;;22.40;88.30;;;;;;6218221;28;20050;-80